sensor_id;sensor_type;location;lat;lon;timestamp;P1;durP1;ratioP1;P2;durP2;ratioP2
73900;SDS011;62235;52.160;7.526;2024-03-06T00:01:18;34.03;;;16.45;;
73900;SDS011;62235;52.160;7.526;2024-03-06T00:03:45;39.38;;;16.00;;
73900;SDS011;62235;52.160;7.526;2024-03-06T00:06:11;39.53;;;16.90;;
73900;SDS011;62235;52.160;7.526;2024-03-06T00:08:37;37.90;;;16.95;;
73900;SDS011;62235;52.160;7.526;2024-03-06T00:11:04;35.30;;;16.80;;
73900;SDS011;62235;52.160;7.526;2024-03-06T00:13:30;36.70;;;15.77;;
73900;SDS011;62235;52.160;7.526;2024-03-06T00:15:57;33.40;;;15.60;;
73900;SDS011;62235;52.160;7.526;2024-03-06T00:18:23;39.92;;;16.70;;
73900;SDS011;62235;52.160;7.526;2024-03-06T00:20:52;37.13;;;15.45;;
73900;SDS011;62235;52.160;7.526;2024-03-06T00:23:18;33.58;;;14.93;;
73900;SDS011;62235;52.160;7.526;2024-03-06T00:25:44;38.00;;;15.65;;
73900;SDS011;62235;52.160;7.526;2024-03-06T00:28:10;33.17;;;15.57;;
73900;SDS011;62235;52.160;7.526;2024-03-06T00:30:37;37.13;;;16.23;;
73900;SDS011;62235;52.160;7.526;2024-03-06T00:33:03;38.85;;;16.25;;
73900;SDS011;62235;52.160;7.526;2024-03-06T00:35:29;32.88;;;15.10;;
73900;SDS011;62235;52.160;7.526;2024-03-06T00:37:56;35.45;;;16.00;;
73900;SDS011;62235;52.160;7.526;2024-03-06T00:40:22;38.33;;;15.20;;
73900;SDS011;62235;52.160;7.526;2024-03-06T00:42:48;34.65;;;16.10;;
73900;SDS011;62235;52.160;7.526;2024-03-06T00:45:14;34.08;;;15.90;;
73900;SDS011;62235;52.160;7.526;2024-03-06T00:47:41;36.33;;;15.32;;
73900;SDS011;62235;52.160;7.526;2024-03-06T00:50:07;33.65;;;15.40;;
73900;SDS011;62235;52.160;7.526;2024-03-06T00:52:33;33.67;;;16.23;;
73900;SDS011;62235;52.160;7.526;2024-03-06T00:55:00;32.08;;;14.40;;
73900;SDS011;62235;52.160;7.526;2024-03-06T00:57:26;31.65;;;14.80;;
73900;SDS011;62235;52.160;7.526;2024-03-06T00:59:53;37.55;;;15.55;;
73900;SDS011;62235;52.160;7.526;2024-03-06T01:02:19;31.20;;;15.23;;
73900;SDS011;62235;52.160;7.526;2024-03-06T01:04:45;30.08;;;14.40;;
73900;SDS011;62235;52.160;7.526;2024-03-06T01:07:11;33.33;;;15.32;;
73900;SDS011;62235;52.160;7.526;2024-03-06T01:09:39;29.42;;;15.02;;
73900;SDS011;62235;52.160;7.526;2024-03-06T01:12:05;31.38;;;14.25;;
73900;SDS011;62235;52.160;7.526;2024-03-06T01:14:31;31.48;;;14.18;;
73900;SDS011;62235;52.160;7.526;2024-03-06T01:16:58;35.15;;;15.02;;
73900;SDS011;62235;52.160;7.526;2024-03-06T01:19:24;33.95;;;14.57;;
73900;SDS011;62235;52.160;7.526;2024-03-06T01:21:50;30.42;;;15.05;;
73900;SDS011;62235;52.160;7.526;2024-03-06T01:24:16;33.97;;;15.07;;
73900;SDS011;62235;52.160;7.526;2024-03-06T01:26:43;33.97;;;15.00;;
73900;SDS011;62235;52.160;7.526;2024-03-06T01:29:09;36.92;;;15.10;;
73900;SDS011;62235;52.160;7.526;2024-03-06T01:31:35;33.25;;;15.93;;
73900;SDS011;62235;52.160;7.526;2024-03-06T01:34:01;29.98;;;14.27;;
73900;SDS011;62235;52.160;7.526;2024-03-06T01:36:28;29.00;;;14.07;;
73900;SDS011;62235;52.160;7.526;2024-03-06T01:38:54;35.05;;;14.75;;
73900;SDS011;62235;52.160;7.526;2024-03-06T01:41:20;30.83;;;14.00;;
73900;SDS011;62235;52.160;7.526;2024-03-06T01:43:46;32.38;;;14.10;;
73900;SDS011;62235;52.160;7.526;2024-03-06T01:46:13;33.22;;;14.52;;
73900;SDS011;62235;52.160;7.526;2024-03-06T01:48:39;36.65;;;14.80;;
73900;SDS011;62235;52.160;7.526;2024-03-06T01:51:06;29.83;;;13.45;;
73900;SDS011;62235;52.160;7.526;2024-03-06T01:53:32;34.45;;;15.35;;
73900;SDS011;62235;52.160;7.526;2024-03-06T01:55:59;33.70;;;14.73;;
73900;SDS011;62235;52.160;7.526;2024-03-06T01:58:26;30.15;;;13.30;;
73900;SDS011;62235;52.160;7.526;2024-03-06T02:00:52;34.25;;;14.90;;
73900;SDS011;62235;52.160;7.526;2024-03-06T02:03:19;31.73;;;14.63;;
73900;SDS011;62235;52.160;7.526;2024-03-06T02:05:46;30.77;;;14.00;;
73900;SDS011;62235;52.160;7.526;2024-03-06T02:08:13;32.85;;;13.82;;
73900;SDS011;62235;52.160;7.526;2024-03-06T02:10:39;29.55;;;14.02;;
73900;SDS011;62235;52.160;7.526;2024-03-06T02:13:05;29.92;;;13.45;;
73900;SDS011;62235;52.160;7.526;2024-03-06T02:15:32;28.60;;;14.85;;
73900;SDS011;62235;52.160;7.526;2024-03-06T02:17:58;33.30;;;14.68;;
73900;SDS011;62235;52.160;7.526;2024-03-06T02:20:25;30.60;;;13.25;;
73900;SDS011;62235;52.160;7.526;2024-03-06T02:22:51;32.08;;;14.75;;
73900;SDS011;62235;52.160;7.526;2024-03-06T02:25:17;30.98;;;14.65;;
73900;SDS011;62235;52.160;7.526;2024-03-06T02:27:44;33.75;;;13.75;;
73900;SDS011;62235;52.160;7.526;2024-03-06T02:35:11;24.27;;;11.77;;
73900;SDS011;62235;52.160;7.526;2024-03-06T02:37:38;29.95;;;13.57;;
73900;SDS011;62235;52.160;7.526;2024-03-06T02:40:05;27.15;;;13.93;;
73900;SDS011;62235;52.160;7.526;2024-03-06T02:42:32;30.58;;;14.13;;
73900;SDS011;62235;52.160;7.526;2024-03-06T02:44:59;30.40;;;14.27;;
73900;SDS011;62235;52.160;7.526;2024-03-06T02:47:25;32.35;;;13.38;;
73900;SDS011;62235;52.160;7.526;2024-03-06T02:49:52;26.65;;;13.13;;
73900;SDS011;62235;52.160;7.526;2024-03-06T02:52:18;28.90;;;13.65;;
73900;SDS011;62235;52.160;7.526;2024-03-06T02:54:44;27.77;;;13.50;;
73900;SDS011;62235;52.160;7.526;2024-03-06T02:57:10;27.50;;;12.80;;
73900;SDS011;62235;52.160;7.526;2024-03-06T02:59:39;32.75;;;13.45;;
73900;SDS011;62235;52.160;7.526;2024-03-06T03:02:05;30.58;;;13.88;;
73900;SDS011;62235;52.160;7.526;2024-03-06T03:04:32;32.28;;;13.15;;
73900;SDS011;62235;52.160;7.526;2024-03-06T03:06:58;27.77;;;13.80;;
73900;SDS011;62235;52.160;7.526;2024-03-06T03:09:25;30.23;;;13.80;;
73900;SDS011;62235;52.160;7.526;2024-03-06T03:11:51;31.33;;;13.57;;
73900;SDS011;62235;52.160;7.526;2024-03-06T03:14:17;26.80;;;13.02;;
73900;SDS011;62235;52.160;7.526;2024-03-06T03:16:44;30.77;;;14.75;;
73900;SDS011;62235;52.160;7.526;2024-03-06T03:19:10;32.95;;;14.07;;
73900;SDS011;62235;52.160;7.526;2024-03-06T03:21:37;35.95;;;13.80;;
73900;SDS011;62235;52.160;7.526;2024-03-06T03:24:03;35.00;;;14.30;;
73900;SDS011;62235;52.160;7.526;2024-03-06T03:26:31;33.30;;;14.15;;
73900;SDS011;62235;52.160;7.526;2024-03-06T03:28:57;31.27;;;13.75;;
73900;SDS011;62235;52.160;7.526;2024-03-06T03:31:24;33.67;;;15.60;;
73900;SDS011;62235;52.160;7.526;2024-03-06T03:33:50;36.38;;;14.50;;
73900;SDS011;62235;52.160;7.526;2024-03-06T03:36:16;30.48;;;14.40;;
73900;SDS011;62235;52.160;7.526;2024-03-06T03:38:42;34.10;;;14.55;;
73900;SDS011;62235;52.160;7.526;2024-03-06T03:41:09;31.58;;;14.63;;
73900;SDS011;62235;52.160;7.526;2024-03-06T03:43:36;27.98;;;13.45;;
73900;SDS011;62235;52.160;7.526;2024-03-06T03:46:03;37.80;;;15.38;;
73900;SDS011;62235;52.160;7.526;2024-03-06T03:48:29;32.20;;;14.68;;
73900;SDS011;62235;52.160;7.526;2024-03-06T03:50:55;32.33;;;14.50;;
73900;SDS011;62235;52.160;7.526;2024-03-06T03:53:22;31.63;;;14.25;;
73900;SDS011;62235;52.160;7.526;2024-03-06T03:55:48;34.67;;;14.68;;
73900;SDS011;62235;52.160;7.526;2024-03-06T03:58:14;31.42;;;13.38;;
73900;SDS011;62235;52.160;7.526;2024-03-06T04:00:41;33.90;;;14.27;;
73900;SDS011;62235;52.160;7.526;2024-03-06T04:03:07;33.28;;;14.07;;
73900;SDS011;62235;52.160;7.526;2024-03-06T04:05:34;31.88;;;13.90;;
73900;SDS011;62235;52.160;7.526;2024-03-06T04:08:00;33.78;;;14.35;;
73900;SDS011;62235;52.160;7.526;2024-03-06T04:10:27;33.90;;;14.93;;
73900;SDS011;62235;52.160;7.526;2024-03-06T04:12:53;29.98;;;14.15;;
73900;SDS011;62235;52.160;7.526;2024-03-06T04:15:19;32.00;;;14.50;;
73900;SDS011;62235;52.160;7.526;2024-03-06T04:17:46;34.92;;;15.77;;
73900;SDS011;62235;52.160;7.526;2024-03-06T04:20:12;36.45;;;15.15;;
73900;SDS011;62235;52.160;7.526;2024-03-06T04:22:39;32.78;;;14.75;;
73900;SDS011;62235;52.160;7.526;2024-03-06T04:25:05;38.20;;;15.60;;
73900;SDS011;62235;52.160;7.526;2024-03-06T04:27:31;33.78;;;14.00;;
73900;SDS011;62235;52.160;7.526;2024-03-06T04:29:58;36.20;;;15.40;;
73900;SDS011;62235;52.160;7.526;2024-03-06T04:32:24;34.15;;;15.15;;
73900;SDS011;62235;52.160;7.526;2024-03-06T04:35:02;38.88;;;14.50;;
73900;SDS011;62235;52.160;7.526;2024-03-06T04:37:30;37.90;;;15.60;;
73900;SDS011;62235;52.160;7.526;2024-03-06T04:39:56;35.33;;;14.98;;
73900;SDS011;62235;52.160;7.526;2024-03-06T04:42:22;40.30;;;15.35;;
73900;SDS011;62235;52.160;7.526;2024-03-06T04:44:48;36.60;;;15.73;;
73900;SDS011;62235;52.160;7.526;2024-03-06T04:47:15;34.90;;;15.25;;
73900;SDS011;62235;52.160;7.526;2024-03-06T04:49:41;36.50;;;14.95;;
73900;SDS011;62235;52.160;7.526;2024-03-06T04:52:07;37.65;;;15.60;;
73900;SDS011;62235;52.160;7.526;2024-03-06T04:54:34;35.13;;;14.75;;
73900;SDS011;62235;52.160;7.526;2024-03-06T04:57:01;35.03;;;14.85;;
73900;SDS011;62235;52.160;7.526;2024-03-06T04:59:27;35.47;;;15.25;;
73900;SDS011;62235;52.160;7.526;2024-03-06T05:01:53;38.50;;;16.17;;
73900;SDS011;62235;52.160;7.526;2024-03-06T05:04:20;43.58;;;16.42;;
73900;SDS011;62235;52.160;7.526;2024-03-06T05:07:04;36.15;;;15.52;;
73900;SDS011;62235;52.160;7.526;2024-03-06T05:09:48;40.60;;;16.08;;
73900;SDS011;62235;52.160;7.526;2024-03-06T05:12:32;42.15;;;16.98;;
73900;SDS011;62235;52.160;7.526;2024-03-06T05:15:16;41.72;;;16.33;;
73900;SDS011;62235;52.160;7.526;2024-03-06T05:17:59;42.78;;;17.20;;
73900;SDS011;62235;52.160;7.526;2024-03-06T05:20:43;62.03;;;23.80;;
73900;SDS011;62235;52.160;7.526;2024-03-06T05:23:27;46.45;;;19.10;;
73900;SDS011;62235;52.160;7.526;2024-03-06T05:26:11;42.95;;;17.70;;
73900;SDS011;62235;52.160;7.526;2024-03-06T05:28:55;47.83;;;17.70;;
73900;SDS011;62235;52.160;7.526;2024-03-06T05:31:39;42.95;;;17.42;;
73900;SDS011;62235;52.160;7.526;2024-03-06T05:34:23;50.88;;;18.73;;
73900;SDS011;62235;52.160;7.526;2024-03-06T05:37:08;39.80;;;17.58;;
73900;SDS011;62235;52.160;7.526;2024-03-06T05:39:52;44.47;;;17.77;;
73900;SDS011;62235;52.160;7.526;2024-03-06T05:42:36;45.85;;;17.38;;
73900;SDS011;62235;52.160;7.526;2024-03-06T05:45:20;44.95;;;17.90;;
73900;SDS011;62235;52.160;7.526;2024-03-06T05:48:04;50.55;;;17.73;;
73900;SDS011;62235;52.160;7.526;2024-03-06T05:50:48;41.53;;;16.98;;
73900;SDS011;62235;52.160;7.526;2024-03-06T05:53:35;49.85;;;18.40;;
73900;SDS011;62235;52.160;7.526;2024-03-06T05:56:19;43.88;;;17.77;;
73900;SDS011;62235;52.160;7.526;2024-03-06T05:59:03;41.08;;;17.30;;
73900;SDS011;62235;52.160;7.526;2024-03-06T06:01:29;45.60;;;16.88;;
73900;SDS011;62235;52.160;7.526;2024-03-06T06:03:55;41.65;;;17.30;;
73900;SDS011;62235;52.160;7.526;2024-03-06T06:06:22;47.28;;;18.77;;
73900;SDS011;62235;52.160;7.526;2024-03-06T06:08:48;45.03;;;17.27;;
73900;SDS011;62235;52.160;7.526;2024-03-06T06:11:14;42.13;;;16.83;;
73900;SDS011;62235;52.160;7.526;2024-03-06T06:13:41;42.70;;;17.45;;
73900;SDS011;62235;52.160;7.526;2024-03-06T06:16:07;104.00;;;44.83;;
73900;SDS011;62235;52.160;7.526;2024-03-06T06:18:33;148.43;;;64.68;;
73900;SDS011;62235;52.160;7.526;2024-03-06T06:21:00;87.22;;;37.55;;
73900;SDS011;62235;52.160;7.526;2024-03-06T06:23:26;62.10;;;26.80;;
73900;SDS011;62235;52.160;7.526;2024-03-06T06:25:52;43.05;;;18.30;;
73900;SDS011;62235;52.160;7.526;2024-03-06T06:28:19;42.25;;;17.25;;
73900;SDS011;62235;52.160;7.526;2024-03-06T06:30:45;40.00;;;17.00;;
73900;SDS011;62235;52.160;7.526;2024-03-06T06:33:11;36.38;;;16.50;;
73900;SDS011;62235;52.160;7.526;2024-03-06T06:35:37;38.13;;;15.82;;
73900;SDS011;62235;52.160;7.526;2024-03-06T06:38:04;39.47;;;16.80;;
73900;SDS011;62235;52.160;7.526;2024-03-06T06:40:30;42.90;;;16.27;;
73900;SDS011;62235;52.160;7.526;2024-03-06T06:42:56;41.13;;;17.05;;
73900;SDS011;62235;52.160;7.526;2024-03-06T06:45:23;40.47;;;17.23;;
73900;SDS011;62235;52.160;7.526;2024-03-06T06:47:49;43.00;;;16.25;;
73900;SDS011;62235;52.160;7.526;2024-03-06T06:50:16;39.25;;;17.45;;
73900;SDS011;62235;52.160;7.526;2024-03-06T06:52:42;41.00;;;16.67;;
73900;SDS011;62235;52.160;7.526;2024-03-06T06:55:08;35.72;;;16.30;;
73900;SDS011;62235;52.160;7.526;2024-03-06T06:57:35;45.20;;;17.70;;
73900;SDS011;62235;52.160;7.526;2024-03-06T07:00:01;42.65;;;16.80;;
73900;SDS011;62235;52.160;7.526;2024-03-06T07:02:28;37.63;;;15.27;;
73900;SDS011;62235;52.160;7.526;2024-03-06T07:04:54;37.47;;;15.80;;
73900;SDS011;62235;52.160;7.526;2024-03-06T07:07:20;33.10;;;16.48;;
73900;SDS011;62235;52.160;7.526;2024-03-06T07:09:47;32.58;;;14.68;;
73900;SDS011;62235;52.160;7.526;2024-03-06T07:12:13;39.10;;;16.17;;
73900;SDS011;62235;52.160;7.526;2024-03-06T07:14:39;40.25;;;16.23;;
73900;SDS011;62235;52.160;7.526;2024-03-06T07:17:05;39.03;;;16.27;;
73900;SDS011;62235;52.160;7.526;2024-03-06T07:19:32;38.85;;;16.55;;
73900;SDS011;62235;52.160;7.526;2024-03-06T07:21:58;40.47;;;16.60;;
73900;SDS011;62235;52.160;7.526;2024-03-06T07:24:24;38.00;;;16.00;;
73900;SDS011;62235;52.160;7.526;2024-03-06T07:26:50;41.00;;;15.55;;
73900;SDS011;62235;52.160;7.526;2024-03-06T07:29:17;39.97;;;15.85;;
73900;SDS011;62235;52.160;7.526;2024-03-06T07:31:43;39.60;;;16.30;;
73900;SDS011;62235;52.160;7.526;2024-03-06T07:34:09;35.63;;;14.82;;
73900;SDS011;62235;52.160;7.526;2024-03-06T07:36:36;41.08;;;16.55;;
73900;SDS011;62235;52.160;7.526;2024-03-06T07:39:03;42.45;;;14.90;;
73900;SDS011;62235;52.160;7.526;2024-03-06T07:41:29;41.72;;;16.52;;
73900;SDS011;62235;52.160;7.526;2024-03-06T07:43:55;40.28;;;16.58;;
73900;SDS011;62235;52.160;7.526;2024-03-06T07:46:21;36.33;;;16.40;;
73900;SDS011;62235;52.160;7.526;2024-03-06T07:48:48;44.95;;;16.60;;
73900;SDS011;62235;52.160;7.526;2024-03-06T07:51:14;40.15;;;17.02;;
73900;SDS011;62235;52.160;7.526;2024-03-06T07:53:40;42.22;;;17.02;;
73900;SDS011;62235;52.160;7.526;2024-03-06T07:56:09;42.55;;;17.85;;
73900;SDS011;62235;52.160;7.526;2024-03-06T07:58:36;45.95;;;17.33;;
73900;SDS011;62235;52.160;7.526;2024-03-06T08:01:02;51.72;;;18.40;;
73900;SDS011;62235;52.160;7.526;2024-03-06T08:03:28;53.45;;;19.13;;
73900;SDS011;62235;52.160;7.526;2024-03-06T08:05:56;47.47;;;18.42;;
73900;SDS011;62235;52.160;7.526;2024-03-06T08:08:22;49.67;;;17.85;;
73900;SDS011;62235;52.160;7.526;2024-03-06T08:10:49;53.78;;;19.10;;
73900;SDS011;62235;52.160;7.526;2024-03-06T08:13:15;52.67;;;18.35;;
73900;SDS011;62235;52.160;7.526;2024-03-06T08:15:42;46.95;;;18.10;;
73900;SDS011;62235;52.160;7.526;2024-03-06T08:18:08;43.95;;;18.88;;
73900;SDS011;62235;52.160;7.526;2024-03-06T08:20:34;47.55;;;19.33;;
73900;SDS011;62235;52.160;7.526;2024-03-06T08:23:01;47.95;;;18.10;;
73900;SDS011;62235;52.160;7.526;2024-03-06T08:25:27;52.50;;;18.73;;
73900;SDS011;62235;52.160;7.526;2024-03-06T08:27:54;55.33;;;18.70;;
73900;SDS011;62235;52.160;7.526;2024-03-06T08:30:20;59.67;;;20.02;;
73900;SDS011;62235;52.160;7.526;2024-03-06T08:32:46;50.70;;;18.17;;
73900;SDS011;62235;52.160;7.526;2024-03-06T08:35:13;55.00;;;20.05;;
73900;SDS011;62235;52.160;7.526;2024-03-06T08:37:45;51.00;;;18.83;;
73900;SDS011;62235;52.160;7.526;2024-03-06T08:40:11;57.40;;;18.23;;
73900;SDS011;62235;52.160;7.526;2024-03-06T08:42:37;51.17;;;18.85;;
73900;SDS011;62235;52.160;7.526;2024-03-06T08:45:04;53.83;;;19.38;;
73900;SDS011;62235;52.160;7.526;2024-03-06T08:47:30;49.30;;;18.63;;
73900;SDS011;62235;52.160;7.526;2024-03-06T08:49:57;48.58;;;19.02;;
73900;SDS011;62235;52.160;7.526;2024-03-06T08:52:24;56.35;;;21.25;;
73900;SDS011;62235;52.160;7.526;2024-03-06T08:54:50;42.55;;;17.60;;
73900;SDS011;62235;52.160;7.526;2024-03-06T08:57:16;47.83;;;18.60;;
73900;SDS011;62235;52.160;7.526;2024-03-06T08:59:42;53.00;;;18.73;;
73900;SDS011;62235;52.160;7.526;2024-03-06T09:02:13;50.20;;;18.63;;
73900;SDS011;62235;52.160;7.526;2024-03-06T09:04:39;46.78;;;18.25;;
73900;SDS011;62235;52.160;7.526;2024-03-06T09:07:06;48.47;;;18.85;;
73900;SDS011;62235;52.160;7.526;2024-03-06T09:09:32;53.72;;;19.00;;
73900;SDS011;62235;52.160;7.526;2024-03-06T09:11:59;44.50;;;17.23;;
73900;SDS011;62235;52.160;7.526;2024-03-06T09:14:25;51.00;;;18.95;;
73900;SDS011;62235;52.160;7.526;2024-03-06T09:16:52;49.35;;;19.30;;
73900;SDS011;62235;52.160;7.526;2024-03-06T09:19:18;50.70;;;19.52;;
73900;SDS011;62235;52.160;7.526;2024-03-06T09:21:45;50.80;;;18.73;;
73900;SDS011;62235;52.160;7.526;2024-03-06T09:24:13;56.55;;;19.08;;
73900;SDS011;62235;52.160;7.526;2024-03-06T09:26:39;49.75;;;18.38;;
73900;SDS011;62235;52.160;7.526;2024-03-06T09:29:05;55.25;;;19.42;;
73900;SDS011;62235;52.160;7.526;2024-03-06T09:31:32;45.65;;;18.10;;
73900;SDS011;62235;52.160;7.526;2024-03-06T09:33:58;51.55;;;17.90;;
73900;SDS011;62235;52.160;7.526;2024-03-06T09:36:24;46.45;;;18.38;;
73900;SDS011;62235;52.160;7.526;2024-03-06T09:38:51;41.15;;;16.05;;
73900;SDS011;62235;52.160;7.526;2024-03-06T09:41:17;46.90;;;17.67;;
73900;SDS011;62235;52.160;7.526;2024-03-06T09:43:44;48.97;;;17.92;;
73900;SDS011;62235;52.160;7.526;2024-03-06T09:46:10;42.47;;;17.38;;
73900;SDS011;62235;52.160;7.526;2024-03-06T09:48:36;45.25;;;17.35;;
73900;SDS011;62235;52.160;7.526;2024-03-06T09:51:08;44.38;;;17.73;;
73900;SDS011;62235;52.160;7.526;2024-03-06T09:53:35;40.83;;;16.98;;
73900;SDS011;62235;52.160;7.526;2024-03-06T09:56:01;36.53;;;15.35;;
73900;SDS011;62235;52.160;7.526;2024-03-06T09:58:27;39.35;;;16.55;;
73900;SDS011;62235;52.160;7.526;2024-03-06T10:00:54;41.65;;;16.27;;
73900;SDS011;62235;52.160;7.526;2024-03-06T10:03:21;43.58;;;16.30;;
73900;SDS011;62235;52.160;7.526;2024-03-06T10:05:47;41.88;;;16.92;;
73900;SDS011;62235;52.160;7.526;2024-03-06T10:08:13;45.83;;;17.10;;
73900;SDS011;62235;52.160;7.526;2024-03-06T10:10:40;47.03;;;17.33;;
73900;SDS011;62235;52.160;7.526;2024-03-06T10:13:07;44.00;;;16.58;;
73900;SDS011;62235;52.160;7.526;2024-03-06T10:15:33;40.58;;;15.73;;
73900;SDS011;62235;52.160;7.526;2024-03-06T10:18:12;36.47;;;16.73;;
73900;SDS011;62235;52.160;7.526;2024-03-06T10:20:39;40.50;;;16.27;;
73900;SDS011;62235;52.160;7.526;2024-03-06T10:23:05;43.40;;;16.88;;
73900;SDS011;62235;52.160;7.526;2024-03-06T10:25:33;43.50;;;15.60;;
73900;SDS011;62235;52.160;7.526;2024-03-06T10:30:30;44.15;;;15.15;;
73900;SDS011;62235;52.160;7.526;2024-03-06T10:32:57;41.30;;;15.68;;
73900;SDS011;62235;52.160;7.526;2024-03-06T10:35:23;34.60;;;15.02;;
73900;SDS011;62235;52.160;7.526;2024-03-06T10:37:49;36.70;;;16.38;;
73900;SDS011;62235;52.160;7.526;2024-03-06T10:40:16;40.33;;;16.08;;
73900;SDS011;62235;52.160;7.526;2024-03-06T10:42:42;36.10;;;14.50;;
73900;SDS011;62235;52.160;7.526;2024-03-06T10:45:12;40.88;;;16.27;;
73900;SDS011;62235;52.160;7.526;2024-03-06T10:47:40;33.88;;;13.85;;
73900;SDS011;62235;52.160;7.526;2024-03-06T10:50:06;29.42;;;14.05;;
73900;SDS011;62235;52.160;7.526;2024-03-06T10:52:34;35.35;;;14.90;;
73900;SDS011;62235;52.160;7.526;2024-03-06T10:55:01;33.63;;;15.13;;
73900;SDS011;62235;52.160;7.526;2024-03-06T10:57:28;29.83;;;14.50;;
73900;SDS011;62235;52.160;7.526;2024-03-06T10:59:56;33.13;;;15.00;;
73900;SDS011;62235;52.160;7.526;2024-03-06T11:02:25;34.35;;;16.20;;
73900;SDS011;62235;52.160;7.526;2024-03-06T11:04:53;36.50;;;16.35;;
73900;SDS011;62235;52.160;7.526;2024-03-06T11:07:20;31.60;;;14.05;;
73900;SDS011;62235;52.160;7.526;2024-03-06T11:09:46;34.10;;;14.80;;
73900;SDS011;62235;52.160;7.526;2024-03-06T11:12:12;34.08;;;13.95;;
73900;SDS011;62235;52.160;7.526;2024-03-06T11:14:39;35.47;;;15.00;;
73900;SDS011;62235;52.160;7.526;2024-03-06T11:17:07;37.38;;;14.98;;
73900;SDS011;62235;52.160;7.526;2024-03-06T11:22:40;35.70;;;15.45;;
73900;SDS011;62235;52.160;7.526;2024-03-06T11:25:05;34.83;;;15.23;;
73900;SDS011;62235;52.160;7.526;2024-03-06T11:27:32;31.20;;;14.52;;
73900;SDS011;62235;52.160;7.526;2024-03-06T11:30:08;33.72;;;15.15;;
73900;SDS011;62235;52.160;7.526;2024-03-06T11:32:35;32.80;;;13.70;;
73900;SDS011;62235;52.160;7.526;2024-03-06T11:35:01;34.25;;;14.52;;
73900;SDS011;62235;52.160;7.526;2024-03-06T11:37:27;31.13;;;13.30;;
73900;SDS011;62235;52.160;7.526;2024-03-06T11:39:59;28.58;;;13.68;;
73900;SDS011;62235;52.160;7.526;2024-03-06T11:42:34;31.67;;;13.70;;
73900;SDS011;62235;52.160;7.526;2024-03-06T11:45:11;31.13;;;14.15;;
73900;SDS011;62235;52.160;7.526;2024-03-06T11:47:55;33.35;;;12.88;;
73900;SDS011;62235;52.160;7.526;2024-03-06T11:50:21;33.83;;;14.52;;
73900;SDS011;62235;52.160;7.526;2024-03-06T11:52:48;31.73;;;13.13;;
73900;SDS011;62235;52.160;7.526;2024-03-06T11:55:15;34.63;;;13.85;;
73900;SDS011;62235;52.160;7.526;2024-03-06T11:57:41;35.80;;;13.38;;
73900;SDS011;62235;52.160;7.526;2024-03-06T12:00:08;34.65;;;14.48;;
73900;SDS011;62235;52.160;7.526;2024-03-06T12:02:36;33.13;;;13.70;;
73900;SDS011;62235;52.160;7.526;2024-03-06T12:05:02;34.22;;;14.27;;
73900;SDS011;62235;52.160;7.526;2024-03-06T12:07:29;27.92;;;12.52;;
73900;SDS011;62235;52.160;7.526;2024-03-06T12:09:56;32.28;;;13.98;;
73900;SDS011;62235;52.160;7.526;2024-03-06T12:12:26;32.25;;;13.75;;
73900;SDS011;62235;52.160;7.526;2024-03-06T12:14:59;26.42;;;13.00;;
73900;SDS011;62235;52.160;7.526;2024-03-06T12:17:25;29.55;;;12.52;;
73900;SDS011;62235;52.160;7.526;2024-03-06T12:19:52;31.20;;;13.88;;
73900;SDS011;62235;52.160;7.526;2024-03-06T12:22:24;27.20;;;12.40;;
73900;SDS011;62235;52.160;7.526;2024-03-06T12:24:58;27.73;;;12.48;;
73900;SDS011;62235;52.160;7.526;2024-03-06T12:27:24;30.83;;;13.13;;
73900;SDS011;62235;52.160;7.526;2024-03-06T12:29:52;26.30;;;12.20;;
73900;SDS011;62235;52.160;7.526;2024-03-06T12:32:19;31.83;;;12.55;;
73900;SDS011;62235;52.160;7.526;2024-03-06T12:34:56;26.30;;;10.80;;
73900;SDS011;62235;52.160;7.526;2024-03-06T12:37:28;27.67;;;11.18;;
73900;SDS011;62235;52.160;7.526;2024-03-06T12:39:55;25.77;;;12.02;;
73900;SDS011;62235;52.160;7.526;2024-03-06T12:42:22;25.02;;;11.95;;
73900;SDS011;62235;52.160;7.526;2024-03-06T12:44:48;24.48;;;11.32;;
73900;SDS011;62235;52.160;7.526;2024-03-06T12:47:14;28.30;;;12.10;;
73900;SDS011;62235;52.160;7.526;2024-03-06T12:49:41;25.77;;;12.60;;
73900;SDS011;62235;52.160;7.526;2024-03-06T12:52:07;28.95;;;12.75;;
73900;SDS011;62235;52.160;7.526;2024-03-06T12:54:33;27.63;;;12.15;;
73900;SDS011;62235;52.160;7.526;2024-03-06T12:56:59;24.92;;;11.63;;
73900;SDS011;62235;52.160;7.526;2024-03-06T12:59:26;28.80;;;12.35;;
73900;SDS011;62235;52.160;7.526;2024-03-06T13:01:52;28.23;;;12.90;;
73900;SDS011;62235;52.160;7.526;2024-03-06T13:04:18;29.88;;;13.57;;
73900;SDS011;62235;52.160;7.526;2024-03-06T13:06:45;29.15;;;13.20;;
73900;SDS011;62235;52.160;7.526;2024-03-06T13:09:11;23.42;;;11.82;;
73900;SDS011;62235;52.160;7.526;2024-03-06T13:11:38;26.20;;;12.10;;
73900;SDS011;62235;52.160;7.526;2024-03-06T13:14:04;28.17;;;13.25;;
73900;SDS011;62235;52.160;7.526;2024-03-06T13:16:30;26.45;;;12.25;;
73900;SDS011;62235;52.160;7.526;2024-03-06T13:18:57;27.70;;;12.30;;
73900;SDS011;62235;52.160;7.526;2024-03-06T13:21:23;25.10;;;12.23;;
73900;SDS011;62235;52.160;7.526;2024-03-06T13:23:49;25.83;;;11.82;;
73900;SDS011;62235;52.160;7.526;2024-03-06T13:26:16;26.30;;;11.80;;
73900;SDS011;62235;52.160;7.526;2024-03-06T13:28:42;28.05;;;12.43;;
73900;SDS011;62235;52.160;7.526;2024-03-06T13:31:08;27.38;;;12.65;;
73900;SDS011;62235;52.160;7.526;2024-03-06T13:33:35;28.38;;;12.18;;
73900;SDS011;62235;52.160;7.526;2024-03-06T13:36:01;25.67;;;11.68;;
73900;SDS011;62235;52.160;7.526;2024-03-06T13:38:30;26.38;;;11.65;;
73900;SDS011;62235;52.160;7.526;2024-03-06T13:40:57;23.50;;;12.10;;
73900;SDS011;62235;52.160;7.526;2024-03-06T13:43:23;28.95;;;12.32;;
73900;SDS011;62235;52.160;7.526;2024-03-06T13:45:50;24.92;;;11.68;;
73900;SDS011;62235;52.160;7.526;2024-03-06T13:48:16;27.23;;;12.48;;
73900;SDS011;62235;52.160;7.526;2024-03-06T13:50:44;26.77;;;11.93;;
73900;SDS011;62235;52.160;7.526;2024-03-06T13:53:11;25.52;;;11.90;;
73900;SDS011;62235;52.160;7.526;2024-03-06T13:55:37;23.73;;;11.30;;
73900;SDS011;62235;52.160;7.526;2024-03-06T13:58:04;25.80;;;11.60;;
73900;SDS011;62235;52.160;7.526;2024-03-06T14:00:30;24.48;;;11.45;;
73900;SDS011;62235;52.160;7.526;2024-03-06T14:02:57;26.48;;;11.98;;
73900;SDS011;62235;52.160;7.526;2024-03-06T14:05:23;23.75;;;10.77;;
73900;SDS011;62235;52.160;7.526;2024-03-06T14:07:49;23.45;;;10.55;;
73900;SDS011;62235;52.160;7.526;2024-03-06T14:10:15;25.10;;;11.35;;
73900;SDS011;62235;52.160;7.526;2024-03-06T14:12:42;19.85;;;10.35;;
73900;SDS011;62235;52.160;7.526;2024-03-06T14:15:08;25.73;;;10.65;;
73900;SDS011;62235;52.160;7.526;2024-03-06T14:17:34;23.92;;;11.18;;
73900;SDS011;62235;52.160;7.526;2024-03-06T14:20:02;26.75;;;11.63;;
73900;SDS011;62235;52.160;7.526;2024-03-06T14:22:28;23.67;;;10.85;;
73900;SDS011;62235;52.160;7.526;2024-03-06T14:24:55;24.00;;;11.27;;
73900;SDS011;62235;52.160;7.526;2024-03-06T14:27:21;24.20;;;11.55;;
73900;SDS011;62235;52.160;7.526;2024-03-06T14:29:47;25.88;;;11.48;;
73900;SDS011;62235;52.160;7.526;2024-03-06T14:32:14;24.60;;;11.60;;
73900;SDS011;62235;52.160;7.526;2024-03-06T14:34:40;22.88;;;10.60;;